sensor_id;sensor_type;location;lat;lon;timestamp;P1;durP1;ratioP1;P2;durP2;ratioP2
10703;SDS011;5403;41.730;13.142;2022-12-29T11:15:56;6.78;;;5.28;;
10703;SDS011;5403;41.730;13.142;2022-12-29T11:18:26;5.72;;;5.10;;
10703;SDS011;5403;41.730;13.142;2022-12-29T11:20:55;5.18;;;4.68;;
10703;SDS011;5403;41.730;13.142;2022-12-29T11:23:30;5.20;;;4.80;;
10703;SDS011;5403;41.730;13.142;2022-12-29T11:26:15;5.65;;;5.15;;
10703;SDS011;5403;41.730;13.142;2022-12-29T11:31:21;5.57;;;5.00;;
10703;SDS011;5403;41.730;13.142;2022-12-29T11:33:49;4.90;;;4.50;;
10703;SDS011;5403;41.730;13.142;2022-12-29T11:36:17;4.32;;;4.03;;
10703;SDS011;5403;41.730;13.142;2022-12-29T11:38:48;4.63;;;4.13;;
10703;SDS011;5403;41.730;13.142;2022-12-29T11:41:19;6.15;;;4.28;;
10703;SDS011;5403;41.730;13.142;2022-12-29T11:43:48;4.28;;;3.97;;
10703;SDS011;5403;41.730;13.142;2022-12-29T11:46:16;4.65;;;4.15;;
10703;SDS011;5403;41.730;13.142;2022-12-29T11:48:47;5.45;;;4.88;;
10703;SDS011;5403;41.730;13.142;2022-12-29T11:51:21;3.88;;;3.55;;
10703;SDS011;5403;41.730;13.142;2022-12-29T11:53:50;4.57;;;3.83;;
10703;SDS011;5403;41.730;13.142;2022-12-29T11:56:20;4.30;;;3.90;;
10703;SDS011;5403;41.730;13.142;2022-12-29T11:58:49;6.95;;;5.43;;
10703;SDS011;5403;41.730;13.142;2022-12-29T12:01:19;6.22;;;5.70;;
10703;SDS011;5403;41.730;13.142;2022-12-29T12:03:53;6.22;;;4.97;;
10703;SDS011;5403;41.730;13.142;2022-12-29T12:06:26;4.10;;;3.30;;
10703;SDS011;5403;41.730;13.142;2022-12-29T12:08:55;3.90;;;3.50;;
10703;SDS011;5403;41.730;13.142;2022-12-29T12:11:25;4.70;;;4.30;;
10703;SDS011;5403;41.730;13.142;2022-12-29T12:13:58;4.80;;;4.07;;
10703;SDS011;5403;41.730;13.142;2022-12-29T12:16:28;4.72;;;3.65;;
10703;SDS011;5403;41.730;13.142;2022-12-29T12:19:01;4.90;;;4.43;;
10703;SDS011;5403;41.730;13.142;2022-12-29T12:21:30;5.22;;;4.70;;
10703;SDS011;5403;41.730;13.142;2022-12-29T12:40:30;12.52;;;11.38;;
10703;SDS011;5403;41.730;13.142;2022-12-29T12:43:05;8.63;;;6.20;;
10703;SDS011;5403;41.730;13.142;2022-12-29T12:45:38;8.75;;;7.32;;
10703;SDS011;5403;41.730;13.142;2022-12-29T12:48:12;7.90;;;7.10;;
10703;SDS011;5403;41.730;13.142;2022-12-29T12:50:47;8.38;;;7.32;;
10703;SDS011;5403;41.730;13.142;2022-12-29T12:53:20;7.63;;;6.70;;
10703;SDS011;5403;41.730;13.142;2022-12-29T12:55:53;7.25;;;6.65;;
10703;SDS011;5403;41.730;13.142;2022-12-29T12:58:27;7.80;;;6.90;;
10703;SDS011;5403;41.730;13.142;2022-12-29T13:01:01;7.90;;;6.80;;
10703;SDS011;5403;41.730;13.142;2022-12-29T13:03:35;7.00;;;6.30;;
10703;SDS011;5403;41.730;13.142;2022-12-29T13:06:11;7.95;;;7.15;;
10703;SDS011;5403;41.730;13.142;2022-12-29T13:08:55;7.25;;;6.35;;
10703;SDS011;5403;41.730;13.142;2022-12-29T13:11:28;6.93;;;6.30;;
10703;SDS011;5403;41.730;13.142;2022-12-29T13:14:03;6.93;;;6.22;;
10703;SDS011;5403;41.730;13.142;2022-12-29T13:16:37;7.40;;;6.70;;
10703;SDS011;5403;41.730;13.142;2022-12-29T13:19:09;8.02;;;7.18;;
10703;SDS011;5403;41.730;13.142;2022-12-29T13:21:44;7.18;;;6.57;;
10703;SDS011;5403;41.730;13.142;2022-12-29T13:24:15;7.57;;;6.68;;
10703;SDS011;5403;41.730;13.142;2022-12-29T13:26:46;7.45;;;6.75;;
10703;SDS011;5403;41.730;13.142;2022-12-29T13:29:16;7.13;;;6.43;;
10703;SDS011;5403;41.730;13.142;2022-12-29T13:31:47;7.95;;;7.15;;
10703;SDS011;5403;41.730;13.142;2022-12-29T13:34:18;8.77;;;7.97;;
10703;SDS011;5403;41.730;13.142;2022-12-29T13:36:52;11.60;;;10.50;;
10703;SDS011;5403;41.730;13.142;2022-12-29T13:39:22;11.02;;;9.93;;
10703;SDS011;5403;41.730;13.142;2022-12-29T13:41:53;10.38;;;9.40;;
10703;SDS011;5403;41.730;13.142;2022-12-29T13:44:22;9.77;;;8.77;;
10703;SDS011;5403;41.730;13.142;2022-12-29T13:46:51;8.48;;;7.78;;
10703;SDS011;5403;41.730;13.142;2022-12-29T13:49:21;8.60;;;7.80;;
10703;SDS011;5403;41.730;13.142;2022-12-29T13:51:50;9.75;;;8.18;;
10703;SDS011;5403;41.730;13.142;2022-12-29T13:54:23;9.82;;;8.93;;
10703;SDS011;5403;41.730;13.142;2022-12-29T13:56:54;12.57;;;10.90;;
10703;SDS011;5403;41.730;13.142;2022-12-29T13:59:27;11.93;;;10.25;;
10703;SDS011;5403;41.730;13.142;2022-12-29T14:02:08;11.02;;;10.00;;
10703;SDS011;5403;41.730;13.142;2022-12-29T14:04:41;11.85;;;10.65;;
10703;SDS011;5403;41.730;13.142;2022-12-29T14:40:30;15.82;;;14.32;;
10703;SDS011;5403;41.730;13.142;2022-12-29T14:42:58;13.77;;;12.35;;
10703;SDS011;5403;41.730;13.142;2022-12-29T14:45:27;14.65;;;12.13;;
